Time;durP1;ratioP1;P1;durP2;ratioP2;P2;SDS_P1;SDS_P2;PMS_P1;PMS_P2;Temp;Humidity;BMP_temperature;BMP_pressure;BME280_temperature;BME280_humidity;BME280_pressure;Samples;Min_cycle;Max_cycle;Signal;HPM_P1;HPM_P2
2023/06/15 00:00:27;;;;;;;6.40;3.10;;;20.70;52.20;;;;;;4974058;28;20162;-75
2023/06/15 00:02:54;;;;;;;7.55;3.08;;;20.70;52.40;;;;;;4968688;28;20138;-74
2023/06/15 00:05:21;;;;;;;4.65;3.05;;;20.60;52.40;;;;;;4968592;28;20498;-74
2023/06/15 00:07:48;;;;;;;5.20;3.10;;;20.60;52.60;;;;;;4984555;28;20051;-75
2023/06/15 00:10:16;;;;;;;7.72;2.97;;;20.60;52.60;;;;;;4966954;28;20147;-74
2023/06/15 00:12:43;;;;;;;6.28;3.17;;;20.50;52.70;;;;;;4967198;28;20078;-74
2023/06/15 00:15:10;;;;;;;6.63;3.30;;;20.50;52.80;;;;;;4969609;28;20063;-74
2023/06/15 00:17:41;;;;;;;5.57;3.15;;;20.50;52.80;;;;;;4970583;28;20058;-74
2023/06/15 00:20:10;;;;;;;5.50;3.10;;;20.50;52.90;;;;;;4964943;28;20107;-74
2023/06/15 00:22:40;;;;;;;6.10;3.22;;;20.40;52.90;;;;;;4959471;28;20102;-74
2023/06/15 00:25:07;;;;;;;10.65;3.40;;;20.40;53.00;;;;;;4969681;28;20078;-74
2023/06/15 00:27:35;;;;;;;6.07;3.13;;;20.30;53.10;;;;;;4969630;28;20422;-74
2023/06/15 00:30:04;;;;;;;6.50;2.72;;;20.30;53.30;;;;;;4965639;28;20051;-74
2023/06/15 00:32:32;;;;;;;7.03;3.23;;;20.30;53.50;;;;;;4969828;28;20133;-75
2023/06/15 00:35:00;;;;;;;4.72;2.97;;;20.30;53.70;;;;;;4955326;28;20143;-75
2023/06/15 00:37:27;;;;;;;4.90;3.03;;;20.20;53.90;;;;;;4965431;28;20115;-74
2023/06/15 00:39:55;;;;;;;5.85;2.90;;;20.20;53.80;;;;;;4961858;28;20050;-75
2023/06/15 00:42:22;;;;;;;4.72;2.88;;;20.10;54.10;;;;;;4952695;28;20551;-75
2023/06/15 00:44:48;;;;;;;6.10;3.13;;;20.10;54.10;;;;;;4967364;28;20070;-75
2023/06/15 00:47:20;;;;;;;5.90;3.40;;;20.10;54.10;;;;;;4949277;28;20083;-75
2023/06/15 00:49:48;;;;;;;4.82;2.83;;;20.00;54.10;;;;;;4964886;28;20086;-75
2023/06/15 00:52:17;;;;;;;6.85;3.40;;;20.00;54.10;;;;;;4947183;28;20044;-75
2023/06/15 00:54:46;;;;;;;5.50;2.83;;;20.00;54.10;;;;;;4952747;28;20094;-75
2023/06/15 00:57:14;;;;;;;7.07;3.17;;;19.90;54.10;;;;;;4968970;28;20544;-75
2023/06/15 00:59:42;;;;;;;5.20;3.03;;;19.90;54.10;;;;;;4946112;28;20062;-75
2023/06/15 01:02:12;;;;;;;5.55;2.83;;;19.90;54.30;;;;;;4968376;28;20465;-75
2023/06/15 01:04:39;;;;;;;4.95;2.97;;;19.80;54.50;;;;;;4952289;28;20592;-75
2023/06/15 01:07:10;;;;;;;6.15;3.17;;;19.70;54.60;;;;;;4968661;28;20985;-74
2023/06/15 01:09:42;;;;;;;5.17;2.80;;;19.70;54.50;;;;;;4951413;28;20051;-75
2023/06/15 01:12:12;;;;;;;6.28;2.85;;;19.70;54.60;;;;;;4951006;28;20726;-75
2023/06/15 01:14:40;;;;;;;6.93;3.00;;;19.70;54.60;;;;;;4952446;28;20115;-74
2023/06/15 01:17:13;;;;;;;6.35;3.08;;;19.60;54.50;;;;;;4944013;28;20107;-75
2023/06/15 01:19:57;;;;;;;7.10;3.05;;;19.50;54.50;;;;;;4951980;28;20055;-74
2023/06/15 01:22:45;;;;;;;5.73;2.80;;;19.50;54.40;;;;;;4960991;28;20548;-75
2023/06/15 01:25:26;;;;;;;6.10;2.90;;;19.50;54.10;;;;;;4952512;28;20077;-74
2023/06/15 01:27:58;;;;;;;5.35;2.97;;;19.40;54.30;;;;;;4966485;28;20443;-74
2023/06/15 01:30:26;;;;;;;5.97;2.80;;;19.40;54.60;;;;;;4967279;28;20082;-74
2023/06/15 01:32:54;;;;;;;6.57;2.90;;;19.40;54.50;;;;;;4962697;28;20138;-74
2023/06/15 01:35:21;;;;;;;6.13;3.00;;;19.30;54.50;;;;;;4968273;28;20666;-75
2023/06/15 01:37:48;;;;;;;6.50;3.10;;;19.30;54.50;;;;;;4967668;28;20130;-74
2023/06/15 01:40:15;;;;;;;4.78;3.10;;;19.20;54.70;;;;;;4951684;28;20174;-74
2023/06/15 01:42:43;;;;;;;7.57;3.17;;;19.20;54.80;;;;;;4971638;28;20059;-74
2023/06/15 01:45:14;;;;;;;5.22;3.15;;;19.20;54.90;;;;;;4950588;28;20056;-75
2023/06/15 01:47:42;;;;;;;6.77;3.17;;;19.10;55.00;;;;;;4952128;28;20365;-74
2023/06/15 01:50:10;;;;;;;5.90;2.80;;;19.10;54.80;;;;;;4948503;28;20051;-74
2023/06/15 01:52:37;;;;;;;6.63;3.25;;;19.00;55.10;;;;;;4960982;28;20058;-74
2023/06/15 01:55:07;;;;;;;7.05;3.05;;;19.00;55.30;;;;;;4967947;28;20055;-74
2023/06/15 01:57:37;;;;;;;5.03;2.80;;;18.90;55.50;;;;;;4959941;28;20655;-74
2023/06/15 02:00:06;;;;;;;8.37;3.10;;;18.90;55.70;;;;;;4967908;28;20593;-74
2023/06/15 02:02:42;;;;;;;5.72;3.38;;;18.90;55.90;;;;;;4967119;28;20126;-73
2023/06/15 02:05:10;;;;;;;5.03;3.20;;;18.90;56.10;;;;;;4968302;28;20134;-74
2023/06/15 02:07:37;;;;;;;7.32;3.10;;;18.80;56.20;;;;;;4963327;28;20059;-74
2023/06/15 02:10:06;;;;;;;6.95;3.60;;;18.80;56.10;;;;;;4947448;28;20177;-75
2023/06/15 02:12:33;;;;;;;5.53;3.13;;;18.70;56.30;;;;;;4936332;28;20067;-74
2023/06/15 02:15:02;;;;;;;6.60;3.70;;;18.70;56.40;;;;;;4948896;28;20079;-74
2023/06/15 02:17:30;;;;;;;6.57;3.47;;;18.60;56.60;;;;;;4943146;28;20546;-74
2023/06/15 02:19:58;;;;;;;7.35;3.33;;;18.60;56.60;;;;;;4950251;28;20051;-74
2023/06/15 02:22:28;;;;;;;6.15;3.40;;;18.60;56.80;;;;;;4966982;28;20083;-74
2023/06/15 02:24:55;;;;;;;6.50;3.70;;;18.60;56.80;;;;;;4969201;28;20147;-74
2023/06/15 02:27:22;;;;;;;6.00;3.67;;;18.50;56.90;;;;;;4958981;28;20055;-74
2023/06/15 02:29:49;;;;;;;7.28;3.80;;;18.50;57.00;;;;;;4947297;28;20501;-74
2023/06/15 02:32:31;;;;;;;7.53;3.40;;;18.50;57.00;;;;;;4964695;28;20493;-74
2023/06/15 02:35:00;;;;;;;6.63;3.88;;;18.40;56.70;;;;;;4963111;28;20048;-74
2023/06/15 02:37:27;;;;;;;6.13;3.30;;;18.40;57.00;;;;;;4968439;28;20055;-74
2023/06/15 02:39:54;;;;;;;6.97;3.58;;;18.40;57.20;;;;;;4965028;28;20059;-74
2023/06/15 02:42:21;;;;;;;5.95;3.40;;;18.30;57.10;;;;;;4958583;28;20529;-74
2023/06/15 02:44:48;;;;;;;6.75;3.78;;;18.30;57.10;;;;;;4950779;28;20051;-74
2023/06/15 02:47:15;;;;;;;6.80;3.13;;;18.30;57.40;;;;;;4966883;28;20254;-74
2023/06/15 02:49:42;;;;;;;7.30;3.63;;;18.20;57.40;;;;;;4950899;28;20482;-75
2023/06/15 02:52:11;;;;;;;65.25;8.85;;;18.20;57.30;;;;;;4950996;28;20139;-74
2023/06/15 02:54:39;;;;;;;64.50;9.00;;;18.20;57.60;;;;;;4966175;28;20086;-74
2023/06/15 02:57:07;;;;;;;30.98;5.68;;;18.20;57.70;;;;;;4961777;28;20051;-74
2023/06/15 02:59:40;;;;;;;14.93;3.88;;;18.10;57.80;;;;;;4966367;28;20517;-74
2023/06/15 03:02:09;;;;;;;9.60;3.73;;;18.10;57.90;;;;;;4964441;28;20613;-74
2023/06/15 03:04:44;;;;;;;9.50;3.63;;;18.00;58.00;;;;;;4955871;28;20930;-74
2023/06/15 03:07:20;;;;;;;6.85;3.55;;;18.00;58.20;;;;;;4946700;28;20581;-73
2023/06/15 03:10:06;;;;;;;6.55;3.70;;;18.00;58.30;;;;;;4962149;28;20113;-74
2023/06/15 03:12:37;;;;;;;6.72;3.60;;;17.90;58.40;;;;;;4964361;28;20547;-74
2023/06/15 03:15:08;;;;;;;5.87;3.60;;;17.90;58.50;;;;;;4946831;28;20055;-74
2023/06/15 03:17:39;;;;;;;7.03;3.83;;;17.80;58.40;;;;;;4950427;28;20044;-74
2023/06/15 03:20:10;;;;;;;6.35;3.50;;;17.80;58.50;;;;;;4950527;28;20051;-74
2023/06/15 03:22:40;;;;;;;6.32;3.80;;;17.80;58.70;;;;;;4946474;28;20086;-75
2023/06/15 03:25:11;;;;;;;6.75;3.83;;;17.80;58.70;;;;;;4949382;28;20110;-75
2023/06/15 03:27:40;;;;;;;7.00;3.40;;;17.80;58.80;;;;;;4957623;28;20043;-75
2023/06/15 03:30:11;;;;;;;6.13;3.45;;;17.80;58.70;;;;;;4951306;28;20086;-75
2023/06/15 03:32:39;;;;;;;7.05;3.80;;;17.70;58.90;;;;;;4950899;28;20062;-75
2023/06/15 03:35:07;;;;;;;6.10;3.55;;;17.60;58.90;;;;;;4968538;28;20111;-75
2023/06/15 03:37:36;;;;;;;6.53;3.60;;;17.60;59.00;;;;;;4947990;28;20054;-75
2023/06/15 03:40:06;;;;;;;6.97;3.67;;;17.60;59.10;;;;;;4947931;28;20055;-75
2023/06/15 03:42:33;;;;;;;7.82;3.58;;;17.60;59.30;;;;;;4970132;28;20107;-75
2023/06/15 03:45:01;;;;;;;6.65;3.95;;;17.50;59.30;;;;;;4953108;28;20043;-75
2023/06/15 03:47:27;;;;;;;9.18;3.80;;;17.50;59.40;;;;;;4952557;28;20100;-75
2023/06/15 03:49:55;;;;;;;7.70;3.58;;;17.50;59.50;;;;;;4953219;28;20492;-75
2023/06/15 03:52:21;;;;;;;6.40;3.57;;;17.50;59.60;;;;;;4969398;28;20061;-75
2023/06/15 03:54:50;;;;;;;6.55;3.60;;;17.40;59.70;;;;;;4952411;28;20055;-75
2023/06/15 03:57:19;;;;;;;9.25;3.80;;;17.40;59.80;;;;;;4967479;28;20047;-75
2023/06/15 03:59:46;;;;;;;8.70;3.80;;;17.40;59.90;;;;;;4969166;28;20043;-75
2023/06/15 04:02:13;;;;;;;7.75;4.00;;;17.30;59.90;;;;;;4969098;28;20078;-75
2023/06/15 04:04:40;;;;;;;8.10;3.57;;;17.30;60.20;;;;;;4956336;28;20086;-75
2023/06/15 04:07:08;;;;;;;7.05;3.78;;;17.20;60.30;;;;;;4968511;28;20110;-75
2023/06/15 04:09:36;;;;;;;6.65;3.50;;;17.20;60.50;;;;;;4951833;28;20055;-75
2023/06/15 04:12:05;;;;;;;8.02;3.55;;;17.20;60.60;;;;;;4952671;28;20062;-75
2023/06/15 04:14:34;;;;;;;7.40;3.90;;;17.20;60.70;;;;;;4968946;28;20078;-75
2023/06/15 04:17:01;;;;;;;7.10;3.40;;;17.20;60.80;;;;;;4954886;28;20052;-75
2023/06/15 04:19:28;;;;;;;6.57;3.90;;;17.10;61.00;;;;;;4949573;28;20047;-75
2023/06/15 04:21:56;;;;;;;9.25;3.95;;;17.00;61.30;;;;;;4976934;28;20051;-75
2023/06/15 04:24:23;;;;;;;6.72;3.85;;;17.00;61.60;;;;;;4958819;28;20514;-75
2023/06/15 04:26:51;;;;;;;5.78;2.50;;;17.00;61.60;;;;;;4960371;28;20469;-72
2023/06/15 04:29:18;;;;;;;6.77;3.37;;;17.00;61.70;;;;;;4955849;28;20561;-73
2023/06/15 04:31:54;;;;;;;7.07;3.35;;;17.00;61.70;;;;;;4949315;28;20052;-73
2023/06/15 04:34:22;;;;;;;7.30;3.78;;;17.00;62.10;;;;;;4961178;28;20047;-73
2023/06/15 04:36:49;;;;;;;6.95;3.58;;;17.00;61.90;;;;;;4967997;28;20525;-73
2023/06/15 04:39:18;;;;;;;6.20;3.90;;;17.10;62.10;;;;;;4945516;28;20055;-72
2023/06/15 04:41:46;;;;;;;6.37;3.90;;;17.10;61.80;;;;;;4962129;28;20130;-73
2023/06/15 04:44:14;;;;;;;9.50;3.92;;;17.20;61.80;;;;;;4950731;28;20602;-72
2023/06/15 04:46:41;;;;;;;6.72;3.42;;;17.20;61.80;;;;;;4951916;28;20054;-72
2023/06/15 04:49:12;;;;;;;8.07;3.80;;;17.20;61.80;;;;;;4950718;28;20513;-72
2023/06/15 04:51:39;;;;;;;8.93;3.72;;;17.20;62.00;;;;;;4948551;28;20557;-73
2023/06/15 04:54:07;;;;;;;6.77;4.10;;;17.20;61.90;;;;;;4966879;28;20086;-73
2023/06/15 04:56:34;;;;;;;6.60;3.95;;;17.20;62.20;;;;;;4950823;28;20051;-72
2023/06/15 04:59:01;;;;;;;6.50;3.63;;;17.20;62.10;;;;;;4948945;28;20047;-73
2023/06/15 05:01:29;;;;;;;7.90;3.60;;;17.30;61.90;;;;;;4967698;28;20056;-73
2023/06/15 05:03:58;;;;;;;6.57;3.15;;;17.30;61.90;;;;;;4967540;28;20051;-72
2023/06/15 05:06:27;;;;;;;8.33;3.50;;;17.40;61.90;;;;;;4952463;28;20059;-72
2023/06/15 05:08:55;;;;;;;6.50;3.22;;;17.40;62.20;;;;;;4952252;28;20051;-73
2023/06/15 05:11:22;;;;;;;7.25;3.50;;;17.40;61.90;;;;;;4950606;28;20496;-73
2023/06/15 05:13:50;;;;;;;7.07;3.33;;;17.50;61.70;;;;;;4951950;28;20799;-72
2023/06/15 05:16:17;;;;;;;8.15;3.80;;;17.50;61.60;;;;;;4951009;28;20047;-72
2023/06/15 05:18:46;;;;;;;6.50;3.07;;;17.50;61.80;;;;;;4968955;28;20059;-73
2023/06/15 05:21:13;;;;;;;9.05;3.35;;;17.50;61.50;;;;;;4967619;28;20059;-73
2023/06/15 05:23:43;;;;;;;8.90;3.30;;;17.60;61.50;;;;;;4971703;28;20055;-72
2023/06/15 05:26:12;;;;;;;8.27;3.58;;;17.60;61.30;;;;;;4968351;28;20087;-73
2023/06/15 05:28:40;;;;;;;5.70;3.28;;;17.60;61.20;;;;;;4968014;28;20095;-72
2023/06/15 05:31:08;;;;;;;6.07;3.27;;;17.60;61.20;;;;;;4962273;28;20059;-72
2023/06/15 05:33:36;;;;;;;5.43;2.97;;;17.70;61.20;;;;;;4963246;28;20498;-73
2023/06/15 05:36:04;;;;;;;7.00;2.95;;;17.80;61.10;;;;;;4967090;28;20058;-73
2023/06/15 05:38:31;;;;;;;8.23;3.10;;;17.80;61.00;;;;;;4950988;28;20055;-73
2023/06/15 05:41:00;;;;;;;6.18;2.80;;;17.80;61.10;;;;;;4967680;28;20157;-73
2023/06/15 05:43:27;;;;;;;6.43;2.53;;;17.80;61.20;;;;;;4967461;28;20047;-73
2023/06/15 05:45:55;;;;;;;6.55;2.70;;;17.80;61.00;;;;;;4951092;28;20097;-73
2023/06/15 05:48:22;;;;;;;6.25;2.78;;;17.80;61.00;;;;;;4963418;28;20058;-73
2023/06/15 05:50:49;;;;;;;5.57;2.40;;;17.90;60.80;;;;;;4948868;28;20055;-72
2023/06/15 05:53:17;;;;;;;4.88;2.25;;;17.90;60.60;;;;;;4950687;28;20062;-73
2023/06/15 05:55:44;;;;;;;6.93;2.30;;;18.00;60.30;;;;;;4952079;28;20134;-73
2023/06/15 05:58:12;;;;;;;5.00;2.30;;;18.00;60.10;;;;;;4950974;28;20083;-73
2023/06/15 06:00:41;;;;;;;6.03;2.40;;;18.00;59.80;;;;;;4967426;28;20182;-72
2023/06/15 06:03:08;;;;;;;6.55;2.42;;;18.00;59.50;;;;;;4948509;28;20055;-73
2023/06/15 06:05:41;;;;;;;5.53;2.58;;;18.00;59.30;;;;;;4950334;28;20626;-72
2023/06/15 06:08:08;;;;;;;7.97;2.40;;;18.10;59.30;;;;;;4964744;28;20055;-73
2023/06/15 06:10:35;;;;;;;5.47;2.30;;;18.10;59.20;;;;;;4958259;28;20082;-73
2023/06/15 06:13:23;;;;;;;5.38;2.17;;;18.10;59.00;;;;;;4968198;28;20090;-73
2023/06/15 06:15:51;;;;;;;6.35;2.22;;;18.20;58.70;;;;;;4951741;28;20425;-73
2023/06/15 06:18:18;;;;;;;5.22;2.38;;;18.20;58.40;;;;;;4951309;28;20047;-73
2023/06/15 06:20:46;;;;;;;6.63;2.20;;;18.20;58.00;;;;;;4967721;28;20053;-73
2023/06/15 06:23:13;;;;;;;6.63;2.30;;;18.30;57.80;;;;;;4950301;28;20055;-73
2023/06/15 06:25:40;;;;;;;5.55;2.30;;;18.30;57.70;;;;;;4963541;28;20047;-73
2023/06/15 06:28:09;;;;;;;8.23;2.20;;;18.30;57.60;;;;;;4950407;28;20067;-73
2023/06/15 06:30:38;;;;;;;4.85;1.90;;;18.40;57.40;;;;;;4966949;28;20051;-72
2023/06/15 06:33:05;;;;;;;5.13;2.13;;;18.40;57.30;;;;;;4968981;28;20051;-73
2023/06/15 06:35:32;;;;;;;5.78;2.40;;;18.40;57.10;;;;;;4968935;28;20055;-73
2023/06/15 06:38:00;;;;;;;5.15;2.33;;;18.50;56.80;;;;;;4962549;28;20055;-72
2023/06/15 06:40:27;;;;;;;6.90;2.17;;;18.50;56.50;;;;;;4944858;28;20051;-72
2023/06/15 06:42:54;;;;;;;5.15;2.30;;;18.50;56.30;;;;;;4962140;28;20054;-72
2023/06/15 06:45:21;;;;;;;4.03;2.03;;;18.60;56.10;;;;;;4965586;28;20058;-72
2023/06/15 06:47:50;;;;;;;5.05;2.50;;;18.60;55.90;;;;;;4964487;28;20051;-72
2023/06/15 06:50:17;;;;;;;4.28;2.15;;;18.70;55.60;;;;;;4963507;28;20226;-72
2023/06/15 06:52:44;;;;;;;5.82;2.50;;;18.70;55.50;;;;;;4963849;28;20048;-72
2023/06/15 06:55:11;;;;;;;8.40;1.98;;;18.70;55.50;;;;;;4960338;28;20520;-73
2023/06/15 06:57:38;;;;;;;5.23;2.00;;;18.80;55.70;;;;;;4969670;28;20055;-73
2023/06/15 07:00:08;;;;;;;5.80;2.38;;;18.80;55.80;;;;;;4969968;28;20055;-73
2023/06/15 07:02:35;;;;;;;4.45;2.30;;;18.80;55.70;;;;;;4966842;28;20059;-73
2023/06/15 07:05:04;;;;;;;4.78;2.20;;;18.90;55.70;;;;;;4966522;28;20796;-72
2023/06/15 07:07:31;;;;;;;4.53;1.98;;;18.90;55.60;;;;;;4963976;28;20564;-73
2023/06/15 07:09:58;;;;;;;5.17;2.07;;;18.90;55.50;;;;;;4966081;28;20082;-73
2023/06/15 07:12:25;;;;;;;6.07;2.70;;;19.00;55.40;;;;;;4965954;28;20146;-73
2023/06/15 07:14:52;;;;;;;6.22;2.63;;;19.00;55.50;;;;;;4951946;28;20047;-73
2023/06/15 07:17:19;;;;;;;7.22;2.40;;;19.10;55.30;;;;;;4985017;28;20154;-73
2023/06/15 07:19:46;;;;;;;6.38;2.55;;;19.10;55.40;;;;;;4971911;28;20138;-73
2023/06/15 07:22:15;;;;;;;7.37;2.33;;;19.20;55.40;;;;;;4969623;28;20126;-73
2023/06/15 07:24:42;;;;;;;6.60;2.50;;;19.20;55.50;;;;;;4952989;28;20496;-72
2023/06/15 07:27:09;;;;;;;6.57;2.42;;;19.20;55.50;;;;;;4969929;28;20163;-73
2023/06/15 07:29:36;;;;;;;5.18;2.28;;;19.30;55.30;;;;;;4966471;28;20055;-72
2023/06/15 07:32:03;;;;;;;6.43;2.65;;;19.30;55.00;;;;;;4970442;28;20083;-73
2023/06/15 07:34:30;;;;;;;5.63;2.23;;;19.40;55.30;;;;;;4969777;28;20043;-73
2023/06/15 07:36:57;;;;;;;4.93;2.17;;;19.40;55.40;;;;;;4968799;28;20506;-73
2023/06/15 07:39:26;;;;;;;6.05;2.50;;;19.50;55.10;;;;;;4967532;28;20055;-72
2023/06/15 07:41:53;;;;;;;4.38;2.22;;;19.50;54.90;;;;;;4950773;28;20146;-73
2023/06/15 07:44:20;;;;;;;4.38;2.38;;;19.60;55.20;;;;;;4969415;28;20135;-73
2023/06/15 07:46:47;;;;;;;4.90;2.33;;;19.60;55.10;;;;;;4967122;28;20511;-72
2023/06/15 07:49:14;;;;;;;10.02;2.33;;;19.70;54.20;;;;;;4965854;28;20062;-73
2023/06/15 07:51:41;;;;;;;5.53;2.10;;;19.70;53.70;;;;;;4967926;28;20061;-74
2023/06/15 07:54:08;;;;;;;6.18;2.13;;;19.80;53.30;;;;;;4967231;28;20911;-74
2023/06/15 07:56:37;;;;;;;4.70;2.35;;;19.90;52.90;;;;;;4966176;28;20532;-73
2023/06/15 07:59:04;;;;;;;4.73;2.20;;;19.90;52.30;;;;;;4963663;28;20051;-73
2023/06/15 08:01:31;;;;;;;4.28;2.08;;;20.00;51.80;;;;;;4964161;28;20058;-74
2023/06/15 08:03:58;;;;;;;6.95;2.50;;;20.00;51.80;;;;;;4964131;28;20819;-73
2023/06/15 08:06:25;;;;;;;6.45;2.35;;;20.10;52.00;;;;;;4965516;28;20134;-74
2023/06/15 08:08:52;;;;;;;6.10;2.35;;;20.20;51.70;;;;;;4966606;28;20928;-74
2023/06/15 08:11:19;;;;;;;6.20;2.40;;;20.30;51.00;;;;;;4967760;28;20061;-73
2023/06/15 08:13:48;;;;;;;4.63;2.40;;;20.30;50.50;;;;;;4963214;28;20054;-73
2023/06/15 08:16:15;;;;;;;6.38;2.30;;;20.30;50.30;;;;;;4961789;28;20158;-73
2023/06/15 08:18:42;;;;;;;4.88;2.20;;;20.50;50.40;;;;;;4972509;28;20419;-74
2023/06/15 08:21:09;;;;;;;3.88;2.20;;;20.50;50.10;;;;;;4967612;28;20701;-73
2023/06/15 08:23:36;;;;;;;5.43;2.20;;;20.60;50.00;;;;;;4949992;28;20082;-73
2023/06/15 08:26:03;;;;;;;6.63;2.40;;;20.60;50.00;;;;;;4968684;28;20054;-74
2023/06/15 08:28:30;;;;;;;5.57;2.40;;;20.70;49.90;;;;;;4967127;28;20568;-73
2023/06/15 08:30:58;;;;;;;4.47;2.00;;;20.70;50.00;;;;;;4945457;28;20648;-72
2023/06/15 08:33:25;;;;;;;5.90;2.67;;;20.80;49.70;;;;;;4967884;28;20051;-72
2023/06/15 08:35:52;;;;;;;5.80;2.13;;;20.80;50.00;;;;;;4950204;28;20058;-72
2023/06/15 08:38:19;;;;;;;4.72;2.38;;;20.80;49.80;;;;;;4965267;28;20055;-72
2023/06/15 08:40:47;;;;;;;4.75;2.08;;;20.90;49.40;;;;;;4977928;28;20055;-71
2023/06/15 08:43:17;;;;;;;6.15;2.28;;;20.90;49.20;;;;;;4966879;28;20074;-72
2023/06/15 08:45:44;;;;;;;4.25;2.17;;;21.00;48.60;;;;;;4967023;28;20074;-72
2023/06/15 08:48:15;;;;;;;5.00;2.30;;;21.00;48.60;;;;;;4967710;28;20065;-72
2023/06/15 08:50:41;;;;;;;4.88;2.30;;;21.10;48.40;;;;;;4964132;28;20138;-72
2023/06/15 08:53:09;;;;;;;6.63;2.30;;;21.10;48.00;;;;;;4951845;28;20043;-72
2023/06/15 08:55:37;;;;;;;7.38;2.50;;;21.10;47.80;;;;;;4959882;28;20055;-73
2023/06/15 08:58:07;;;;;;;4.82;2.22;;;21.20;47.30;;;;;;4968066;28;20596;-74
2023/06/15 09:00:35;;;;;;;25.43;3.90;;;21.30;47.00;;;;;;4967463;28;20137;-72
2023/06/15 09:03:07;;;;;;;8.18;2.60;;;21.30;47.00;;;;;;4964599;28;20108;-72
2023/06/15 09:05:36;;;;;;;9.43;2.65;;;21.40;46.90;;;;;;4966166;28;20047;-73
2023/06/15 09:08:03;;;;;;;5.25;2.30;;;21.50;47.20;;;;;;4947091;28;20052;-73
2023/06/15 09:10:31;;;;;;;5.85;2.50;;;21.50;46.80;;;;;;4963401;28;20056;-73
2023/06/15 09:12:59;;;;;;;6.53;2.50;;;21.60;46.00;;;;;;4965628;28;20040;-73
2023/06/15 09:15:28;;;;;;;4.90;2.13;;;21.70;45.70;;;;;;4967811;28;20604;-74
2023/06/15 09:17:57;;;;;;;7.15;2.80;;;21.70;45.90;;;;;;4968197;28;20051;-78
2023/06/15 09:20:25;;;;;;;5.72;2.60;;;21.80;46.40;;;;;;4976370;28;20059;-74
2023/06/15 09:22:58;;;;;;;6.22;2.85;;;21.90;46.60;;;;;;4968330;28;20529;-73
2023/06/15 09:25:25;;;;;;;6.23;2.33;;;21.90;46.60;;;;;;4983140;28;20137;-72
2023/06/15 09:27:57;;;;;;;5.30;2.40;;;22.00;46.20;;;;;;4988088;28;20042;-73
2023/06/15 09:30:31;;;;;;;9.18;3.17;;;22.10;45.60;;;;;;4966759;28;20130;-74
2023/06/15 09:32:59;;;;;;;5.07;2.40;;;22.20;46.00;;;;;;4964100;28;20039;-73
2023/06/15 09:35:26;;;;;;;5.80;2.50;;;22.40;45.40;;;;;;4968571;28;20055;-74
2023/06/15 09:37:56;;;;;;;4.80;2.27;;;22.50;44.00;;;;;;4966804;28;20055;-73
2023/06/15 09:40:26;;;;;;;5.30;2.50;;;22.60;44.80;;;;;;4958679;28;20513;-72
2023/06/15 09:42:55;;;;;;;5.93;2.70;;;22.70;45.10;;;;;;4960215;28;20058;-72
2023/06/15 09:45:23;;;;;;;5.15;2.80;;;22.70;45.10;;;;;;4967205;28;20544;-73
2023/06/15 09:47:54;;;;;;;7.18;2.67;;;22.80;45.00;;;;;;4961366;28;20055;-73
2023/06/15 09:50:27;;;;;;;4.40;2.50;;;22.90;45.20;;;;;;4968956;28;20059;-74
2023/06/15 09:52:58;;;;;;;5.93;2.58;;;22.90;45.00;;;;;;4962278;28;20051;-74
2023/06/15 09:55:26;;;;;;;5.15;2.70;;;23.00;45.10;;;;;;4966376;28;20059;-74
2023/06/15 09:57:53;;;;;;;10.30;2.92;;;23.00;45.80;;;;;;4967398;28;20204;-74
2023/06/15 10:00:22;;;;;;;5.35;2.47;;;23.00;45.10;;;;;;4964368;28;20061;-73
2023/06/15 10:02:52;;;;;;;5.17;2.40;;;23.10;44.00;;;;;;4970193;28;20138;-73
2023/06/15 10:05:27;;;;;;;4.85;2.70;;;23.20;43.90;;;;;;4960881;28;21161;-73
2023/06/15 10:07:56;;;;;;;6.45;2.67;;;23.20;43.90;;;;;;4960847;28;20931;-73
2023/06/15 10:10:24;;;;;;;6.40;2.72;;;23.30;43.70;;;;;;4979720;28;20067;-74
2023/06/15 10:12:55;;;;;;;4.85;2.30;;;23.40;43.40;;;;;;4961233;28;20051;-73
2023/06/15 10:15:26;;;;;;;4.40;2.53;;;23.50;43.40;;;;;;4977204;28;20077;-74
2023/06/15 10:17:55;;;;;;;5.47;2.80;;;23.60;43.00;;;;;;4967313;28;20933;-74
2023/06/15 10:20:26;;;;;;;5.65;2.50;;;23.60;42.90;;;;;;4957042;28;20059;-74
2023/06/15 10:23:00;;;;;;;5.75;2.65;;;23.80;43.00;;;;;;4946518;28;20047;-75
2023/06/15 10:25:28;;;;;;;6.13;2.63;;;23.90;43.00;;;;;;4976465;28;20114;-75
2023/06/15 10:27:55;;;;;;;5.43;2.60;;;23.90;42.80;;;;;;4962633;28;20489;-75
2023/06/15 10:30:31;;;;;;;4.93;2.50;;;24.00;43.00;;;;;;4963406;28;20059;-76
2023/06/15 10:33:06;;;;;;;4.22;2.42;;;24.00;43.10;;;;;;4966470;28;20143;-75
2023/06/15 10:35:38;;;;;;;4.60;2.47;;;24.00;42.50;;;;;;4970742;28;20051;-75
2023/06/15 10:38:19;;;;;;;6.65;3.15;;;24.20;42.00;;;;;;4978476;28;21016;-75
2023/06/15 10:40:48;;;;;;;6.57;2.30;;;24.20;42.10;;;;;;4976593;28;20058;-75
2023/06/15 10:43:19;;;;;;;5.00;2.53;;;24.20;41.30;;;;;;4972663;28;20102;-74
2023/06/15 10:45:47;;;;;;;6.38;2.60;;;24.30;41.40;;;;;;4970481;28;20055;-76
2023/06/15 10:48:22;;;;;;;6.30;2.45;;;24.30;41.20;;;;;;4974236;28;20051;-75
2023/06/15 10:50:51;;;;;;;5.25;2.95;;;24.40;40.30;;;;;;4970042;28;20047;-75
2023/06/15 10:53:24;;;;;;;6.03;2.50;;;24.40;40.50;;;;;;4964387;28;20053;-76
2023/06/15 10:55:55;;;;;;;4.45;2.17;;;24.50;40.50;;;;;;4983545;28;20057;-75
2023/06/15 10:58:24;;;;;;;5.28;2.58;;;24.50;40.20;;;;;;4981415;28;20109;-77
2023/06/15 11:01:07;;;;;;;6.65;3.10;;;24.60;39.40;;;;;;4970990;28;20150;-76
2023/06/15 11:03:35;;;;;;;15.60;3.42;;;24.60;40.10;;;;;;4966541;28;20940;-75
2023/06/15 11:06:03;;;;;;;11.13;2.67;;;24.70;39.40;;;;;;4973875;28;20059;-75
2023/06/15 11:08:33;;;;;;;5.82;2.40;;;24.80;39.00;;;;;;4973262;28;20051;-75
2023/06/15 11:11:00;;;;;;;15.43;3.05;;;24.90;39.10;;;;;;4971584;28;20059;-76
2023/06/15 11:13:28;;;;;;;6.15;2.45;;;25.00;38.70;;;;;;4988357;28;20054;-75
2023/06/15 11:16:09;;;;;;;7.43;2.50;;;25.00;38.50;;;;;;4968827;28;20197;-79
2023/06/15 11:18:37;;;;;;;5.47;2.60;;;25.20;38.60;;;;;;4966359;28;20051;-78
2023/06/15 11:21:05;;;;;;;5.75;2.30;;;25.20;38.60;;;;;;4969313;28;20078;-78
2023/06/15 11:23:35;;;;;;;4.78;2.40;;;25.30;39.30;;;;;;4973640;28;20056;-78
2023/06/15 11:26:02;;;;;;;4.70;2.60;;;25.40;38.50;;;;;;4974883;28;20058;-77
2023/06/15 11:28:34;;;;;;;5.15;2.33;;;25.40;38.40;;;;;;4975410;28;20107;-77
2023/06/15 11:31:03;;;;;;;4.80;2.33;;;25.50;38.70;;;;;;4970714;28;20052;-76
2023/06/15 11:33:32;;;;;;;4.22;2.20;;;25.60;39.00;;;;;;4972972;28;20055;-76
2023/06/15 11:36:04;;;;;;;5.20;2.30;;;25.60;37.90;;;;;;4967419;28;20051;-76
2023/06/15 11:38:33;;;;;;;7.13;2.33;;;25.70;37.30;;;;;;4973022;28;20537;-74
2023/06/15 11:41:02;;;;;;;4.85;3.00;;;25.80;37.20;;;;;;4968870;28;20053;-75
2023/06/15 11:43:34;;;;;;;5.13;2.60;;;25.80;37.40;;;;;;4961514;28;20051;-75
2023/06/15 11:46:02;;;;;;;3.97;2.17;;;25.90;37.60;;;;;;4965156;28;20902;-75
2023/06/15 11:48:29;;;;;;;6.05;2.67;;;26.00;37.10;;;;;;4967316;28;20199;-75
2023/06/15 11:50:57;;;;;;;7.13;2.25;;;26.00;36.60;;;;;;4968740;28;20086;-75
2023/06/15 11:53:24;;;;;;;4.20;2.40;;;26.10;35.90;;;;;;4969047;28;20138;-75
2023/06/15 11:55:53;;;;;;;4.63;2.30;;;26.20;35.00;;;;;;4968762;28;20138;-75
2023/06/15 11:58:23;;;;;;;5.43;2.33;;;26.20;34.90;;;;;;4968478;28;20051;-75
2023/06/15 12:00:51;;;;;;;4.97;2.40;;;26.30;35.20;;;;;;4967704;28;20650;-75
2023/06/15 12:03:18;;;;;;;6.07;2.30;;;26.40;35.10;;;;;;4968409;28;20047;-75
2023/06/15 12:05:55;;;;;;;4.35;2.50;;;26.40;34.90;;;;;;4968716;28;20509;-75
2023/06/15 12:08:23;;;;;;;5.27;2.50;;;26.50;34.90;;;;;;4967746;28;20047;-75
2023/06/15 12:10:51;;;;;;;5.15;2.15;;;26.50;35.10;;;;;;4968246;28;20059;-76
2023/06/15 12:13:19;;;;;;;5.20;2.63;;;26.60;34.70;;;;;;4969535;28;20051;-76
2023/06/15 12:15:47;;;;;;;7.30;2.50;;;26.70;34.50;;;;;;4985938;28;20055;-76
2023/06/15 12:18:14;;;;;;;6.25;2.72;;;26.70;35.00;;;;;;4968813;28;20875;-76
2023/06/15 12:20:41;;;;;;;5.60;2.43;;;26.80;34.60;;;;;;4969791;28;20059;-76
2023/06/15 12:23:09;;;;;;;5.78;2.75;;;26.80;34.80;;;;;;4969476;28;20130;-79
2023/06/15 12:25:44;;;;;;;5.70;2.70;;;26.90;34.50;;;;;;4969799;28;20058;-76
2023/06/15 12:28:16;;;;;;;5.10;2.75;;;26.90;34.70;;;;;;4954119;28;20055;-76
2023/06/15 12:30:48;;;;;;;5.70;2.92;;;27.00;34.40;;;;;;4986386;28;20044;-76
2023/06/15 12:33:25;;;;;;;4.37;2.47;;;27.00;34.80;;;;;;4970156;28;20055;-76
2023/06/15 12:35:54;;;;;;;12.07;3.30;;;27.10;35.40;;;;;;4970704;28;20062;-77
2023/06/15 12:38:23;;;;;;;6.22;2.55;;;27.10;35.50;;;;;;4971796;28;20059;-77
2023/06/15 12:40:52;;;;;;;4.13;2.40;;;27.20;35.30;;;;;;4969466;28;20445;-76
2023/06/15 12:43:20;;;;;;;5.00;2.70;;;27.30;35.20;;;;;;4969659;28;20143;-77
2023/06/15 12:45:49;;;;;;;5.37;2.63;;;27.40;34.90;;;;;;4968996;28;20051;-77
2023/06/15 12:48:16;;;;;;;5.25;2.88;;;27.50;35.20;;;;;;4971218;28;20054;-77
2023/06/15 12:50:44;;;;;;;4.68;2.60;;;27.50;35.70;;;;;;4960298;28;20070;-76
2023/06/15 12:53:11;;;;;;;7.50;2.85;;;27.60;35.70;;;;;;4969632;28;20055;-76